Time;durP1;ratioP1;P1;durP2;ratioP2;P2;SDS_P1;SDS_P2;PMS_P1;PMS_P2;Temp;Humidity;BMP_temperature;BMP_pressure;BME280_temperature;BME280_humidity;BME280_pressure;Samples;Min_cycle;Max_cycle;Signal;HPM_P1;HPM_P2
2023/03/19 00:01:51;;;;;;;21.43;11.03;;;5.20;68.90;;;4.96;50.69;95480.50;5001692;28;20507;-57
2023/03/19 00:04:20;;;;;;;22.37;10.67;;;5.20;69.50;;;4.94;50.47;95485.81;5008333;28;21013;-56
2023/03/19 00:06:47;;;;;;;17.13;8.97;;;5.10;69.30;;;4.94;50.56;95483.22;5011064;28;21398;-56
2023/03/19 00:09:14;;;;;;;16.90;8.10;;;5.10;69.40;;;4.93;50.42;95484.13;5003002;28;21038;-56
2023/03/19 00:11:42;;;;;;;17.07;7.70;;;5.10;69.50;;;4.92;50.76;95482.44;5019389;28;20481;-56
2023/03/19 00:14:09;;;;;;;13.63;6.57;;;5.10;69.90;;;4.91;50.67;95491.22;5010950;28;21063;-59
2023/03/19 00:16:36;;;;;;;13.63;7.23;;;5.10;69.90;;;4.90;50.83;95480.88;5008658;28;20524;-56
2023/03/19 00:19:04;;;;;;;13.80;7.70;;;5.10;70.20;;;4.86;50.92;95480.19;5006253;28;21021;-57
2023/03/19 00:21:32;;;;;;;13.73;7.47;;;5.10;70.30;;;4.82;50.63;95484.75;5004428;28;20454;-57
2023/03/19 00:24:01;;;;;;;12.00;6.60;;;5.00;70.00;;;4.79;50.60;95476.28;4997748;28;20489;-57
2023/03/19 00:26:28;;;;;;;19.53;8.93;;;5.00;69.90;;;4.74;50.51;95471.34;5013131;28;20467;-57
2023/03/19 00:28:56;;;;;;;20.63;9.37;;;4.90;70.10;;;4.72;50.66;95472.34;5016585;28;20965;-57
2023/03/19 00:31:23;;;;;;;19.00;7.70;;;4.90;69.90;;;4.67;50.79;95467.41;5004559;28;20468;-56
2023/03/19 00:33:51;;;;;;;14.87;6.83;;;4.90;70.10;;;4.63;50.53;95464.16;5002539;28;20719;-56
2023/03/19 00:36:18;;;;;;;11.83;7.43;;;4.90;70.40;;;4.61;50.79;95460.78;5009330;28;20962;-57
2023/03/19 00:38:47;;;;;;;21.10;7.50;;;4.80;70.40;;;4.58;50.53;95460.94;5007763;28;20495;-57
2023/03/19 00:41:16;;;;;;;8.10;5.60;;;4.80;70.70;;;4.56;51.08;95457.59;5007134;28;20544;-57
2023/03/19 00:43:43;;;;;;;15.70;6.83;;;4.80;71.10;;;4.54;51.65;95454.25;5014951;28;20465;-57
2023/03/19 00:46:10;;;;;;;14.63;6.90;;;4.80;72.10;;;4.52;51.95;95456.09;5007638;28;20515;-58
2023/03/19 00:48:38;;;;;;;16.00;6.90;;;4.70;72.50;;;4.49;51.21;95448.47;4991096;28;20486;-57
2023/03/19 00:51:06;;;;;;;16.17;6.00;;;4.70;72.20;;;4.47;51.59;95447.72;5008583;28;20469;-56
2023/03/19 00:53:36;;;;;;;8.20;5.77;;;4.70;72.60;;;4.42;51.00;95441.94;5004080;28;20577;-57
2023/03/19 00:56:06;;;;;;;14.43;6.37;;;4.60;71.40;;;4.35;51.42;95448.41;4997259;28;20550;-57
2023/03/19 00:58:33;;;;;;;16.63;6.77;;;4.60;72.40;;;4.28;51.75;95435.75;5010340;28;21013;-56
2023/03/19 01:01:01;;;;;;;13.23;5.77;;;4.60;72.70;;;4.28;51.87;95438.34;5006279;28;20536;-56
2023/03/19 01:03:28;;;;;;;8.50;5.80;;;4.50;72.90;;;4.29;52.00;95436.56;5006323;28;21100;-56
2023/03/19 01:05:55;;;;;;;18.73;5.93;;;4.50;73.20;;;4.28;51.86;95437.53;5008923;28;20452;-55
2023/03/19 01:08:23;;;;;;;7.07;5.50;;;4.50;73.90;;;4.27;52.39;95441.03;5003084;28;20486;-56
2023/03/19 01:10:50;;;;;;;13.27;6.80;;;4.50;74.10;;;4.24;52.12;95433.41;5006434;28;21063;-57
2023/03/19 01:13:19;;;;;;;8.00;6.30;;;4.50;74.20;;;4.21;52.60;95437.00;5005949;28;20568;-57
2023/03/19 01:15:46;;;;;;;14.43;8.00;;;4.40;74.60;;;4.20;52.36;95432.75;5008091;28;20680;-56
2023/03/19 01:18:14;;;;;;;13.97;8.40;;;4.40;75.00;;;4.18;52.94;95424.16;4999046;28;20958;-55
2023/03/19 01:20:41;;;;;;;17.50;8.63;;;4.40;75.40;;;4.17;52.17;95429.47;5002799;28;20468;-57
2023/03/19 01:23:09;;;;;;;18.10;7.53;;;4.40;75.20;;;4.13;52.36;95436.63;5004427;28;20481;-56
2023/03/19 01:25:36;;;;;;;14.60;8.20;;;4.30;75.10;;;4.05;51.99;95431.84;4999940;28;20457;-56
2023/03/19 01:28:03;;;;;;;17.50;7.80;;;4.30;75.30;;;4.04;52.46;95437.13;5003494;28;20538;-56
2023/03/19 01:30:32;;;;;;;14.10;8.70;;;4.30;75.30;;;4.03;52.57;95444.13;5001663;28;20465;-56
2023/03/19 01:32:59;;;;;;;17.70;8.87;;;4.30;76.00;;;4.01;52.49;95445.94;5006974;28;20542;-55
2023/03/19 01:35:27;;;;;;;18.17;9.90;;;4.20;75.70;;;3.99;52.23;95442.59;5006979;28;20466;-57
2023/03/19 01:37:55;;;;;;;15.53;8.90;;;4.20;75.80;;;3.97;52.28;95443.59;4996058;28;20497;-57
2023/03/19 01:40:22;;;;;;;20.97;8.83;;;4.20;76.10;;;3.94;52.87;95444.63;5015738;28;20464;-57
2023/03/19 01:42:54;;;;;;;16.10;7.67;;;4.10;76.00;;;3.91;52.67;95440.41;5000753;28;20874;-56
2023/03/19 01:45:33;;;;;;;10.23;6.70;;;4.10;75.90;;;3.87;52.92;95438.06;4996389;28;20463;-56
2023/03/19 01:48:00;;;;;;;13.47;7.13;;;4.10;76.40;;;3.83;51.97;95434.81;5012161;28;20493;-56
2023/03/19 01:50:40;;;;;;;423.43;151.43;;;4.10;75.80;;;3.80;52.53;95440.19;5002991;28;20462;-57
2023/03/19 01:53:08;;;;;;;59.07;25.60;;;4.00;75.90;;;3.78;52.42;95439.44;5005901;28;20497;-56
2023/03/19 01:55:35;;;;;;;17.90;9.20;;;4.00;76.00;;;3.74;52.31;95436.16;5013713;28;20465;-55
2023/03/19 01:58:03;;;;;;;15.97;8.27;;;4.00;76.50;;;3.71;53.17;95438.91;5006924;28;20509;-57
2023/03/19 02:00:31;;;;;;;16.17;8.17;;;4.00;76.60;;;3.68;52.48;95443.47;4997374;28;20462;-57
2023/03/19 02:03:01;;;;;;;14.70;8.67;;;3.90;76.70;;;3.65;52.42;95438.41;5010165;28;20476;-56
2023/03/19 02:05:28;;;;;;;14.20;7.77;;;3.90;77.00;;;3.62;53.00;95430.78;5005803;28;20918;-57
2023/03/19 02:08:00;;;;;;;20.83;9.50;;;3.90;77.00;;;3.59;52.69;95432.63;4999401;28;20970;-56
2023/03/19 02:10:28;;;;;;;14.83;8.60;;;3.90;77.50;;;3.62;53.24;95438.59;5001736;28;20532;-56
2023/03/19 02:12:55;;;;;;;14.90;9.03;;;3.80;77.70;;;3.63;52.96;95435.91;5006706;28;20473;-56
2023/03/19 02:15:22;;;;;;;12.67;8.13;;;3.80;77.70;;;3.64;52.83;95431.53;4999420;28;20457;-55
2023/03/19 02:17:51;;;;;;;14.03;8.60;;;3.90;77.90;;;3.64;53.44;95432.38;5001360;28;20480;-55
2023/03/19 02:20:22;;;;;;;15.70;9.23;;;3.90;78.50;;;3.64;53.31;95435.00;5009443;28;21017;-57
2023/03/19 02:22:56;;;;;;;17.73;9.20;;;3.90;79.30;;;3.63;53.32;95435.91;5008731;28;20510;-55
2023/03/19 02:25:28;;;;;;;16.80;8.87;;;3.90;79.50;;;3.63;53.85;95441.09;4995363;28;20462;-56
2023/03/19 02:27:57;;;;;;;14.70;9.00;;;3.80;80.00;;;3.61;53.87;95437.75;5013016;28;20473;-56
2023/03/19 02:30:31;;;;;;;17.10;8.10;;;3.80;80.50;;;3.61;53.71;95440.34;5006448;28;20469;-56
2023/03/19 02:32:58;;;;;;;10.83;6.83;;;3.80;80.70;;;3.59;53.54;95440.44;4995212;28;20473;-57
2023/03/19 02:35:26;;;;;;;11.87;7.40;;;3.80;80.60;;;3.59;53.93;95440.44;5007909;28;20576;-55
2023/03/19 02:37:53;;;;;;;11.70;7.43;;;3.80;80.90;;;3.57;53.65;95442.25;4996481;28;21165;-56
2023/03/19 02:40:23;;;;;;;12.87;7.20;;;3.80;81.50;;;3.57;54.23;95457.03;4998181;28;20575;-55
2023/03/19 02:42:51;;;;;;;19.07;8.87;;;3.80;81.30;;;3.55;53.64;95454.53;5011904;28;20480;-59
2023/03/19 02:45:20;;;;;;;13.30;9.47;;;3.80;81.10;;;3.52;54.51;95452.09;5010973;28;21575;-56
2023/03/19 02:47:47;;;;;;;27.43;10.37;;;3.80;81.30;;;3.51;53.96;95458.19;5006214;28;20532;-56
2023/03/19 02:50:14;;;;;;;14.73;8.30;;;3.70;81.40;;;3.48;54.46;95453.16;4997593;28;20966;-56
2023/03/19 02:52:42;;;;;;;18.03;7.83;;;3.70;81.90;;;3.47;54.33;95451.50;5008520;28;20477;-56
2023/03/19 02:55:09;;;;;;;17.03;9.90;;;3.70;82.80;;;3.45;54.27;95458.53;5004370;28;20970;-57
2023/03/19 02:57:37;;;;;;;16.00;8.37;;;3.70;82.50;;;3.46;53.64;95462.81;4996460;28;20525;-56
2023/03/19 03:00:05;;;;;;;16.20;7.77;;;3.70;82.20;;;3.45;53.94;95458.53;5013888;28;20578;-57
2023/03/19 03:02:34;;;;;;;10.30;8.20;;;3.70;82.60;;;3.46;54.06;95467.19;5008000;28;21466;-57
2023/03/19 03:05:01;;;;;;;18.30;9.30;;;3.70;82.50;;;3.46;54.55;95469.78;4990168;28;20459;-58
2023/03/19 03:07:29;;;;;;;15.67;8.60;;;3.70;82.90;;;3.46;54.04;95465.41;4997865;28;20470;-57
2023/03/19 03:09:57;;;;;;;14.07;9.30;;;3.70;82.90;;;3.45;53.53;95476.72;4999832;28;20465;-57
2023/03/19 03:12:24;;;;;;;17.97;9.73;;;3.70;82.70;;;3.43;54.51;95470.78;4999806;28;20519;-57
2023/03/19 03:14:51;;;;;;;18.60;10.77;;;3.70;82.90;;;3.41;53.76;95472.63;5005054;28;20457;-55
2023/03/19 03:17:19;;;;;;;19.73;10.43;;;3.70;82.90;;;3.38;54.22;95470.19;5003329;28;20486;-56
2023/03/19 03:19:47;;;;;;;15.10;7.80;;;3.60;82.70;;;3.37;54.24;95471.09;4993766;28;20497;-56
2023/03/19 03:22:15;;;;;;;13.70;7.97;;;3.60;82.90;;;3.35;53.60;95468.59;5003891;28;20564;-56
2023/03/19 03:24:42;;;;;;;13.40;8.13;;;3.60;82.90;;;3.36;54.33;95474.63;5008754;28;21225;-56
2023/03/19 03:27:09;;;;;;;18.83;7.60;;;3.60;82.90;;;3.34;54.37;95472.09;5001868;28;20485;-56
2023/03/19 03:29:36;;;;;;;14.33;7.83;;;3.60;82.80;;;3.34;53.73;95471.28;4995108;28;20458;-56
2023/03/19 03:32:05;;;;;;;12.43;8.63;;;3.60;83.10;;;3.31;54.47;95474.84;5004930;28;20921;-57
2023/03/19 03:34:32;;;;;;;16.63;9.07;;;3.60;82.90;;;3.31;54.78;95482.66;5003359;28;20547;-56
2023/03/19 03:37:01;;;;;;;18.13;8.30;;;3.50;83.40;;;3.29;54.99;95479.31;4999259;28;20472;-58
2023/03/19 03:39:28;;;;;;;16.17;9.50;;;3.50;84.20;;;3.27;54.21;95478.56;5011131;28;20492;-57
2023/03/19 03:41:56;;;;;;;14.83;8.73;;;3.50;84.20;;;3.24;54.90;95478.72;5001045;28;20477;-56
2023/03/19 03:44:23;;;;;;;17.20;9.07;;;3.50;84.30;;;3.23;54.01;95474.44;5001297;28;20549;-57
2023/03/19 03:46:51;;;;;;;20.87;10.17;;;3.50;84.40;;;3.21;54.87;95469.31;5002954;28;20571;-55
2023/03/19 03:49:18;;;;;;;12.80;7.03;;;3.40;84.70;;;3.20;54.90;95475.41;5012397;28;20470;-58
2023/03/19 03:51:45;;;;;;;12.70;7.40;;;3.40;84.90;;;3.20;54.61;95483.22;5004544;28;21001;-56
2023/03/19 03:54:14;;;;;;;23.43;7.27;;;3.40;84.70;;;3.19;54.42;95478.09;5004630;28;20914;-57
2023/03/19 03:56:41;;;;;;;13.70;8.53;;;3.40;84.60;;;3.18;54.92;95481.63;5015461;28;20504;-57
2023/03/19 03:59:08;;;;;;;12.70;7.67;;;3.40;85.10;;;3.17;55.19;95483.38;5000903;28;20535;-57
2023/03/19 04:01:36;;;;;;;13.40;6.97;;;3.40;85.10;;;3.14;54.88;95483.53;4992548;28;20482;-57
2023/03/19 04:04:03;;;;;;;10.90;7.43;;;3.40;85.10;;;3.14;54.13;95480.09;5008432;28;20490;-58
2023/03/19 04:06:31;;;;;;;16.07;6.53;;;3.30;84.80;;;3.13;54.96;95479.28;5005462;28;20461;-57
2023/03/19 04:08:58;;;;;;;12.60;7.17;;;3.40;85.30;;;3.13;54.72;95476.69;5003202;28;20555;-55
2023/03/19 04:11:26;;;;;;;9.83;6.40;;;3.40;85.50;;;3.12;53.94;95472.38;5009402;28;20544;-56
2023/03/19 04:13:56;;;;;;;8.50;6.70;;;3.30;85.00;;;3.08;54.33;95476.06;5009830;28;20603;-56
2023/03/19 04:16:23;;;;;;;10.10;6.70;;;3.30;85.00;;;3.04;54.41;95470.19;5006977;28;20453;-55
2023/03/19 04:18:51;;;;;;;18.10;8.03;;;3.30;85.20;;;3.05;54.12;95460.63;5009602;28;20456;-57
2023/03/19 04:21:18;;;;;;;17.13;7.80;;;3.30;85.20;;;3.04;54.12;95464.16;5011276;28;20457;-56
2023/03/19 04:23:46;;;;;;;17.40;7.40;;;3.30;85.30;;;3.06;54.25;95467.50;5004884;28;21076;-55
2023/03/19 04:26:16;;;;;;;16.63;7.33;;;3.30;85.30;;;3.04;54.58;95469.34;5000509;28;20462;-56
2023/03/19 04:28:45;;;;;;;23.50;8.50;;;3.30;85.10;;;3.03;55.18;95472.88;5005310;28;20478;-55
2023/03/19 04:31:12;;;;;;;15.93;7.80;;;3.30;85.50;;;3.01;54.90;95475.53;5006943;28;20458;-56
2023/03/19 04:33:39;;;;;;;9.57;7.47;;;3.30;85.50;;;3.02;55.03;95479.84;4999274;28;20449;-56
2023/03/19 04:36:07;;;;;;;12.80;6.77;;;3.30;85.50;;;3.02;54.87;95482.44;5004778;28;21052;-56
2023/03/19 04:38:35;;;;;;;11.10;7.10;;;3.30;86.00;;;3.00;54.53;95481.66;5000781;28;20474;-55
2023/03/19 04:41:03;;;;;;;15.20;7.00;;;3.30;85.70;;;2.98;54.56;95477.47;5004508;28;20505;-57
2023/03/19 04:43:30;;;;;;;12.63;7.77;;;3.20;85.50;;;2.94;55.17;95478.53;5014603;28;20516;-57
2023/03/19 04:45:59;;;;;;;26.67;8.50;;;3.20;86.00;;;2.90;54.89;95477.88;5011971;28;20462;-56
2023/03/19 04:48:26;;;;;;;10.93;6.80;;;3.20;86.50;;;2.90;54.77;95483.06;5001907;28;20479;-57
2023/03/19 04:50:55;;;;;;;12.33;7.03;;;3.20;86.50;;;2.93;54.48;95492.44;5002465;28;20500;-56
2023/03/19 04:53:23;;;;;;;9.57;5.57;;;3.20;86.70;;;2.94;55.49;95488.94;5013205;28;20570;-56
2023/03/19 04:55:50;;;;;;;11.53;7.63;;;3.20;86.70;;;2.96;55.37;95490.53;5011023;28;20473;-57
2023/03/19 04:58:18;;;;;;;8.30;5.83;;;3.20;86.60;;;2.97;55.18;95491.38;5008643;28;20489;-56
2023/03/19 05:00:46;;;;;;;9.10;6.60;;;3.20;86.80;;;2.98;55.25;95486.09;5010109;28;20490;-56
2023/03/19 05:03:15;;;;;;;15.03;7.67;;;3.20;86.80;;;2.99;54.75;95485.19;5007680;28;20477;-57
2023/03/19 05:05:42;;;;;;;13.03;7.30;;;3.30;86.90;;;3.00;54.55;95483.41;5006504;28;20992;-57
2023/03/19 05:08:10;;;;;;;10.53;7.00;;;3.30;87.10;;;3.02;54.83;95490.22;5015690;28;20476;-57
2023/03/19 05:10:37;;;;;;;15.23;8.40;;;3.30;87.30;;;3.06;55.06;95488.31;5011445;28;20461;-55
2023/03/19 05:13:05;;;;;;;19.60;9.07;;;3.30;87.80;;;3.10;55.27;95494.16;4996278;28;20475;-57
2023/03/19 05:15:33;;;;;;;29.43;10.13;;;3.30;88.60;;;3.15;55.20;95492.19;5013616;28;20518;-56
2023/03/19 05:18:00;;;;;;;17.30;7.80;;;3.40;88.70;;;3.26;54.87;95500.25;5009511;28;20558;-56
2023/03/19 05:20:29;;;;;;;14.27;8.43;;;3.50;88.80;;;3.36;55.13;95495.41;5006505;28;20923;-56
2023/03/19 05:22:56;;;;;;;18.47;8.93;;;3.60;88.40;;;3.42;55.58;95492.50;5009847;28;21048;-56
2023/03/19 05:25:23;;;;;;;11.73;7.40;;;3.70;88.80;;;3.55;55.33;95497.91;5007270;28;20473;-57
2023/03/19 05:27:51;;;;;;;24.63;8.20;;;3.80;89.00;;;3.63;55.29;95492.31;5004170;28;20535;-56
2023/03/19 05:30:18;;;;;;;24.60;7.43;;;3.90;88.80;;;3.68;54.70;95495.47;5001322;28;20462;-56
2023/03/19 05:32:45;;;;;;;23.63;8.60;;;3.90;88.30;;;3.75;54.36;95483.84;5004612;28;20481;-55
2023/03/19 05:35:13;;;;;;;20.13;8.50;;;4.00;87.90;;;3.87;54.87;95485.78;5007947;28;20453;-57
2023/03/19 05:37:41;;;;;;;19.20;9.80;;;4.00;87.70;;;3.95;54.52;95494.00;5001229;28;20486;-57
2023/03/19 05:40:11;;;;;;;17.17;9.90;;;4.20;87.20;;;4.00;54.13;95487.66;5007509;28;20496;-58
2023/03/19 05:42:38;;;;;;;19.17;11.63;;;4.20;87.10;;;4.05;54.38;95491.72;5006893;28;20572;-58
2023/03/19 05:45:06;;;;;;;17.17;10.23;;;4.20;87.00;;;4.09;53.73;95497.56;4994964;28;20451;-58
2023/03/19 05:47:34;;;;;;;19.37;11.10;;;4.30;86.50;;;4.12;54.08;95495.66;5007701;28;20481;-57
2023/03/19 05:50:01;;;;;;;21.57;10.87;;;4.30;86.50;;;4.14;54.11;95498.19;4999365;28;20552;-57
2023/03/19 05:52:28;;;;;;;19.57;9.23;;;4.40;86.50;;;4.19;53.85;95505.72;5008970;28;20500;-57
2023/03/19 05:54:57;;;;;;;28.43;10.47;;;4.40;86.10;;;4.21;53.67;95503.88;5012491;28;20491;-59
2023/03/19 05:57:24;;;;;;;24.13;12.20;;;4.40;85.70;;;4.20;53.52;95508.25;5005722;28;20481;-56
2023/03/19 05:59:52;;;;;;;22.60;13.07;;;4.40;85.60;;;4.22;53.67;95505.56;4998936;28;20500;-57
2023/03/19 06:02:19;;;;;;;19.20;11.93;;;4.40;85.60;;;4.25;53.75;95506.22;5007642;28;20565;-57
2023/03/19 06:04:46;;;;;;;25.00;12.10;;;4.50;85.90;;;4.38;53.33;95502.94;5001940;28;20464;-58
2023/03/19 06:07:13;;;;;;;24.57;10.70;;;4.50;85.90;;;4.49;53.80;95505.75;5002346;28;20494;-56
2023/03/19 06:09:41;;;;;;;18.13;10.40;;;4.60;86.20;;;4.64;53.47;95501.44;4995953;28;20462;-58
2023/03/19 06:12:10;;;;;;;23.70;10.73;;;4.70;85.90;;;4.79;52.96;95505.78;5011538;28;20758;-57
2023/03/19 06:14:38;;;;;;;22.10;11.00;;;4.90;85.40;;;4.97;52.88;95503.88;5006068;28;20576;-56
2023/03/19 06:17:05;;;;;;;18.13;10.00;;;5.00;85.00;;;5.18;52.85;95508.75;5003070;28;20986;-60
2023/03/19 06:19:33;;;;;;;17.77;9.83;;;5.20;85.00;;;5.39;52.42;95506.59;5005974;28;20517;-57
2023/03/19 06:22:00;;;;;;;19.13;10.30;;;5.40;84.60;;;5.60;52.39;95512.31;5007716;28;20482;-58
2023/03/19 06:24:29;;;;;;;18.97;10.33;;;5.70;83.90;;;5.84;51.69;95514.34;4998793;28;20474;-55
2023/03/19 06:26:56;;;;;;;24.43;13.07;;;5.90;83.50;;;6.09;51.58;95509.28;5009149;28;20472;-58
2023/03/19 06:29:25;;;;;;;21.83;11.27;;;6.10;82.80;;;6.36;50.98;95511.09;5011039;28;20544;-56
2023/03/19 06:31:53;;;;;;;19.47;11.70;;;6.40;81.60;;;6.60;50.60;95503.44;5000124;28;20478;-58
2023/03/19 06:34:21;;;;;;;21.10;12.03;;;6.60;81.20;;;6.89;50.73;95507.69;5000911;28;20520;-58
2023/03/19 06:36:48;;;;;;;26.73;12.03;;;6.90;80.90;;;7.21;49.64;95512.56;5005477;28;20472;-57
2023/03/19 06:39:15;;;;;;;19.10;12.13;;;7.20;80.50;;;7.49;49.26;95514.97;4997413;28;20466;-56
2023/03/19 06:41:43;;;;;;;20.33;11.37;;;7.50;78.50;;;7.77;48.65;95518.31;4998599;28;20496;-57
2023/03/19 06:44:10;;;;;;;22.03;11.50;;;7.70;77.90;;;8.10;48.58;95518.66;5018916;28;20457;-56
2023/03/19 06:46:39;;;;;;;29.33;11.57;;;8.00;76.40;;;8.41;47.73;95525.16;5002668;28;20565;-59
2023/03/19 06:49:06;;;;;;;30.17;10.57;;;8.30;75.70;;;8.72;47.53;95528.22;5003004;28;20460;-58
2023/03/19 06:51:34;;;;;;;21.70;11.20;;;8.60;74.90;;;9.03;47.15;95523.34;5011513;28;21067;-57
2023/03/19 06:54:01;;;;;;;30.27;12.77;;;8.90;74.20;;;9.37;46.68;95519.00;5006577;28;20958;-59
2023/03/19 06:56:28;;;;;;;20.47;11.30;;;9.20;72.80;;;9.66;46.18;95529.09;5006633;28;20458;-57
2023/03/19 06:58:55;;;;;;;22.93;11.43;;;9.60;71.20;;;9.94;45.44;95521.72;5008184;28;20514;-57
2023/03/19 07:01:23;;;;;;;22.80;11.67;;;9.80;69.90;;;10.26;45.08;95537.56;5001953;28;21453;-58
2023/03/19 07:03:51;;;;;;;20.53;12.23;;;10.20;68.10;;;10.58;45.05;95528.94;5003842;28;20478;-58
2023/03/19 07:06:18;;;;;;;21.70;10.80;;;10.50;67.90;;;10.92;44.55;95523.56;5005325;28;20988;-57
2023/03/19 07:08:46;;;;;;;20.70;12.00;;;10.80;66.90;;;11.28;43.32;95529.41;5009871;28;20460;-57
2023/03/19 07:11:13;;;;;;;18.37;11.50;;;11.10;64.50;;;11.59;43.20;95532.91;5005019;28;20547;-57
2023/03/19 07:13:41;;;;;;;24.23;13.40;;;11.40;64.20;;;11.94;42.37;95528.28;4995789;28;21025;-57
2023/03/19 07:16:08;;;;;;;24.03;12.20;;;11.80;63.00;;;12.30;41.90;95526.03;5011546;28;20779;-57
2023/03/19 07:18:36;;;;;;;20.10;11.50;;;12.10;62.10;;;12.64;41.97;95528.34;5000300;28;21366;-57
2023/03/19 07:21:05;;;;;;;28.87;12.70;;;12.40;61.30;;;13.01;41.61;95525.06;4998436;28;20612;-57
2023/03/19 07:23:32;;;;;;;21.13;11.90;;;12.80;61.10;;;13.38;40.71;95519.09;5006649;28;21014;-58
2023/03/19 07:26:00;;;;;;;23.60;11.60;;;13.10;59.30;;;13.75;40.81;95523.63;4999752;28;20516;-57
2023/03/19 07:28:27;;;;;;;21.40;11.83;;;13.50;59.30;;;14.14;39.85;95520.84;5002895;28;20485;-58
2023/03/19 07:30:55;;;;;;;19.43;11.03;;;13.90;58.10;;;14.57;40.13;95519.38;5000676;28;20460;-57
2023/03/19 07:33:22;;;;;;;16.93;11.50;;;14.30;58.80;;;15.05;40.25;95518.22;4999276;28;21121;-59
2023/03/19 07:35:49;;;;;;;21.67;11.07;;;14.70;58.40;;;15.56;39.89;95510.53;5004405;28;20466;-57
2023/03/19 07:38:18;;;;;;;23.83;11.67;;;15.20;58.00;;;16.11;39.96;95521.84;5002223;28;20481;-59
2023/03/19 07:40:45;;;;;;;18.67;12.17;;;15.70;58.70;;;16.65;39.02;95519.78;5007781;28;20496;-58
2023/03/19 07:43:12;;;;;;;19.83;11.87;;;16.30;57.50;;;17.20;38.46;95521.06;5006900;28;20631;-59
2023/03/19 07:45:40;;;;;;;17.13;11.20;;;16.80;56.30;;;17.74;37.48;95517.06;4998744;28;20459;-57
2023/03/19 07:48:07;;;;;;;30.10;13.27;;;17.40;54.20;;;18.18;36.40;95518.50;5014445;28;20476;-57
2023/03/19 07:50:34;;;;;;;17.60;12.17;;;17.90;52.10;;;18.56;36.29;95510.69;5003044;28;20469;-60
2023/03/19 07:53:02;;;;;;;24.27;12.30;;;18.40;52.90;;;19.01;35.22;95510.97;5008418;28;20901;-57
2023/03/19 07:55:31;;;;;;;23.13;12.00;;;18.90;50.80;;;19.34;35.16;95515.09;5009853;28;20448;-60
2023/03/19 07:57:58;;;;;;;24.37;12.57;;;19.40;50.30;;;19.63;33.83;95505.53;5012382;28;20469;-58
2023/03/19 08:00:26;;;;;;;17.70;12.37;;;19.70;48.80;;;19.87;33.19;95517.00;5002016;28;20568;-59
2023/03/19 08:02:53;;;;;;;24.90;13.40;;;20.00;47.50;;;20.04;32.91;95507.81;5003150;28;20472;-60
2023/03/19 08:05:21;;;;;;;20.60;13.40;;;20.20;46.50;;;20.33;32.49;95516.84;5012943;28;20886;-58
2023/03/19 08:07:50;;;;;;;19.70;14.53;;;20.50;46.70;;;20.65;32.76;95506.84;5008526;28;20500;-57
2023/03/19 08:10:17;;;;;;;22.70;13.70;;;20.70;46.50;;;20.96;30.41;95511.09;5003146;28;20544;-56
2023/03/19 08:12:46;;;;;;;19.50;13.10;;;21.00;42.70;;;21.21;31.54;95508.03;5013643;28;20485;-60
2023/03/19 08:15:14;;;;;;;20.40;14.00;;;21.20;45.10;;;21.46;31.75;95505.84;5008159;28;20489;-58
2023/03/19 08:17:41;;;;;;;20.70;13.90;;;21.40;44.70;;;21.67;31.42;95510.34;5001004;28;20567;-56
2023/03/19 08:20:10;;;;;;;20.03;13.40;;;21.60;43.70;;;21.89;31.05;95504.97;5014322;28;20571;-55
2023/03/19 08:22:38;;;;;;;20.93;12.53;;;21.90;44.20;;;21.98;29.66;95507.31;5006699;28;21124;-57
2023/03/19 08:25:07;;;;;;;28.90;12.20;;;22.00;42.30;;;22.03;28.93;95518.28;5003457;28;20461;-58
2023/03/19 08:27:34;;;;;;;15.60;11.23;;;22.10;41.80;;;21.94;29.87;95511.41;5012150;28;21020;-58
2023/03/19 08:30:03;;;;;;;16.13;11.50;;;22.10;42.10;;;21.99;28.56;95510.81;5009281;28;20469;-59
2023/03/19 08:32:30;;;;;;;17.90;12.60;;;22.10;40.90;;;22.07;28.75;95504.47;5003661;28;20579;-58
2023/03/19 08:34:58;;;;;;;19.93;12.63;;;22.20;40.40;;;22.14;27.15;95500.81;5003099;28;20480;-57
2023/03/19 08:37:25;;;;;;;20.10;11.27;;;22.20;39.40;;;22.17;28.02;95500.44;5006236;28;20950;-56
2023/03/19 08:39:52;;;;;;;17.37;12.00;;;22.30;39.30;;;22.09;28.03;95500.59;5010592;28;20472;-56
2023/03/19 08:42:21;;;;;;;19.07;12.17;;;22.20;39.70;;;22.07;27.32;95499.13;5003258;28;20619;-57
2023/03/19 08:44:48;;;;;;;20.40;10.63;;;22.10;38.60;;;21.94;27.90;95494.50;5013987;28;20483;-58
2023/03/19 08:47:17;;;;;;;14.27;11.07;;;22.00;38.20;;;21.83;27.62;95494.03;5012091;28;20608;-58
2023/03/19 08:49:44;;;;;;;14.40;10.50;;;21.90;39.00;;;21.79;26.88;95486.56;5003238;28;20777;-58
2023/03/19 08:52:12;;;;;;;15.63;8.70;;;21.70;37.60;;;21.75;27.03;95488.81;5006896;28;20571;-57
2023/03/19 08:54:39;;;;;;;14.90;9.63;;;21.70;38.20;;;21.73;27.47;95484.66;5010240;28;20456;-57
2023/03/19 08:57:07;;;;;;;14.47;9.03;;;21.60;38.60;;;21.77;26.71;95484.09;5002431;28;20480;-57
2023/03/19 08:59:35;;;;;;;16.33;9.43;;;21.60;37.70;;;21.71;27.10;95484.88;5012531;28;20497;-57
2023/03/19 09:02:02;;;;;;;12.50;9.30;;;21.50;37.60;;;21.55;26.87;95474.41;5002843;28;20507;-56
2023/03/19 09:04:35;;;;;;;18.03;10.73;;;21.40;37.60;;;21.46;26.34;95471.03;4999854;28;20472;-58
2023/03/19 09:07:02;;;;;;;23.80;8.83;;;21.20;36.90;;;21.39;26.93;95472.81;5010601;28;21104;-57
2023/03/19 09:09:29;;;;;;;13.70;8.93;;;21.20;38.10;;;21.13;26.28;95467.03;5012300;28;20974;-56
2023/03/19 09:11:57;;;;;;;13.07;7.40;;;20.90;36.50;;;21.03;26.42;95465.69;5005384;28;20496;-59
2023/03/19 09:14:24;;;;;;;8.80;7.50;;;20.80;36.90;;;21.03;26.40;95461.16;5005529;28;20457;-59
2023/03/19 09:16:52;;;;;;;17.80;12.13;;;20.70;36.90;;;21.12;26.24;95462.69;5008820;28;20481;-57
2023/03/19 09:19:20;;;;;;;15.47;10.87;;;20.80;36.70;;;21.23;26.65;95465.91;5011524;28;20564;-57
2023/03/19 09:21:49;;;;;;;17.27;12.17;;;20.90;37.50;;;21.41;26.52;95463.59;5007490;28;20500;-58
2023/03/19 09:24:16;;;;;;;11.13;8.67;;;21.00;37.30;;;21.57;25.71;95456.34;5012271;28;20564;-56
2023/03/19 09:26:43;;;;;;;11.80;9.60;;;21.20;36.30;;;21.66;25.47;95452.50;5005041;28;21072;-58
2023/03/19 09:29:10;;;;;;;23.47;10.67;;;21.30;35.80;;;21.66;24.62;95449.81;5006833;28;20520;-58
2023/03/19 09:31:38;;;;;;;16.90;8.73;;;21.40;35.10;;;21.57;25.38;95446.44;5009044;28;21276;-55
2023/03/19 09:34:06;;;;;;;14.03;9.67;;;21.30;35.20;;;21.58;25.90;95444.59;4997958;28;20461;-58
2023/03/19 09:36:33;;;;;;;30.10;11.97;;;21.30;36.30;;;21.74;25.97;95440.81;5001785;28;20476;-56
2023/03/19 09:39:03;;;;;;;14.23;9.80;;;21.40;36.20;;;21.99;26.31;95438.50;5008965;28;20534;-60
2023/03/19 09:41:36;;;;;;;24.40;8.90;;;21.70;37.40;;;22.27;26.60;95435.75;5008108;28;20604;-56
2023/03/19 09:44:05;;;;;;;9.03;7.77;;;21.90;37.30;;;22.53;25.48;95443.13;5001512;28;20470;-60
2023/03/19 09:46:37;;;;;;;14.07;7.17;;;22.20;35.90;;;22.77;25.37;95438.22;5000615;28;20534;-59
2023/03/19 09:49:15;;;;;;;9.90;7.17;;;22.40;37.00;;;22.99;23.49;95443.44;5012470;28;20449;-64
2023/03/19 09:51:47;;;;;;;8.23;5.27;;;22.70;35.00;;;23.14;24.49;95433.41;4998990;28;20531;-58
2023/03/19 09:54:30;;;;;;;8.50;5.10;;;22.80;34.60;;;23.32;23.04;95432.00;5004750;28;20445;-56
2023/03/19 09:56:58;;;;;;;5.87;4.97;;;23.00;33.20;;;23.43;23.53;95424.13;5003055;28;20482;-59
2023/03/19 09:59:27;;;;;;;8.10;4.90;;;23.10;33.10;;;23.55;24.19;95427.03;5008227;28;20462;-59
2023/03/19 10:02:01;;;;;;;6.03;4.67;;;23.20;34.10;;;23.71;23.67;95423.06;4990407;28;20494;-57
2023/03/19 10:04:52;;;;;;;4.47;4.07;;;23.30;33.90;;;23.89;23.00;95417.09;5009709;28;20540;-60
2023/03/19 10:07:29;;;;;;;5.73;5.10;;;23.50;33.00;;;24.08;23.66;95419.97;5007406;28;21022;-58
2023/03/19 10:10:20;;;;;;;10.13;5.70;;;23.70;33.70;;;24.23;23.32;95415.16;5004677;28;20464;-58
2023/03/19 10:12:54;;;;;;;8.33;5.77;;;23.80;33.10;;;24.37;23.49;95407.03;5011536;28;20484;-60
2023/03/19 10:15:22;;;;;;;6.60;4.83;;;24.00;34.00;;;24.45;23.48;95409.50;5001518;28;20454;-57
2023/03/19 10:18:01;;;;;;;14.77;5.63;;;24.10;33.30;;;24.49;22.78;95416.06;4999481;28;20496;-60
2023/03/19 10:20:46;;;;;;;12.07;5.80;;;24.10;32.60;;;24.52;22.12;95400.34;5003942;28;20465;-56
2023/03/19 10:23:33;;;;;;;12.10;4.77;;;24.10;32.50;;;24.55;22.87;95398.28;4995422;28;20477;-57
2023/03/19 10:26:04;;;;;;;7.20;5.20;;;24.20;33.00;;;24.58;23.99;95398.69;5000609;28;20844;-59